createdAt,value
2023-09-30T07:13:19.848Z,22.25
2023-09-30T07:56:32.664Z,22.83
2023-09-30T07:59:04.226Z,23.30
2023-09-30T08:05:19.768Z,20.38
2023-09-30T08:07:24.418Z,23.23
2023-09-30T08:08:49.896Z,18.33
2023-09-30T08:10:14.508Z,21.58
2023-09-30T08:12:01.451Z,21.30
2023-09-30T08:18:54.220Z,21.50
2023-09-30T08:20:38.869Z,24.02
2023-09-30T08:22:07.935Z,23.42
2023-09-30T08:25:32.560Z,20.95
2023-09-30T08:27:09.406Z,21.15
2023-09-30T08:28:50.443Z,19.83
2023-09-30T08:32:52.238Z,20.52
2023-09-30T08:38:00.516Z,18.02
2023-09-30T08:42:31.116Z,22.35
2023-09-30T08:44:00.912Z,20.95
2023-09-30T08:45:34.979Z,18.48
2023-09-30T08:47:01.896Z,18.73
2023-09-30T08:50:15.310Z,22.85
2023-09-30T08:52:07.607Z,18.95
2023-09-30T08:53:46.077Z,20.80
2023-09-30T08:58:01.955Z,17.35
2023-09-30T09:02:01.448Z,22.10
2023-09-30T09:03:45.042Z,19.80
2023-09-30T09:07:38.832Z,21.98
2023-09-30T09:09:16.827Z,27.00
2023-09-30T09:11:08.132Z,25.23
2023-09-30T09:13:00.636Z,25.73
2023-09-30T09:14:47.693Z,22.30
2023-09-30T09:16:16.786Z,27.85
2023-09-30T09:19:28.724Z,29.52
2023-09-30T09:26:28.191Z,16.13
2023-09-30T09:27:51.293Z,16.45
2023-09-30T09:29:17.219Z,13.50
2023-09-30T09:30:42.523Z,17.73
2023-09-30T09:32:30.648Z,14.38
2023-09-30T09:33:55.098Z,15.73
2023-09-30T09:35:23.152Z,15.90
2023-09-30T09:36:50.005Z,17.73
2023-09-30T09:38:20.620Z,14.68
2023-09-30T09:39:53.573Z,17.08
2023-09-30T09:41:16.663Z,13.45
2023-09-30T09:42:40.341Z,14.57
2023-09-30T09:44:04.216Z,12.05
2023-09-30T09:45:36.556Z,12.55
2023-09-30T09:47:20.082Z,12.88
2023-09-30T09:48:53.237Z,11.43
2023-09-30T09:50:21.831Z,12.40
2023-09-30T09:51:48.773Z,11.20
2023-09-30T09:53:14.259Z,13.00
2023-09-30T09:54:40.107Z,12.70
2023-09-30T09:56:05.434Z,10.38
2023-09-30T09:57:33.682Z,9.13
2023-09-30T09:58:59.009Z,10.73
2023-09-30T10:00:25.367Z,11.10
2023-09-30T10:01:52.460Z,9.90
2023-09-30T10:03:30.849Z,10.32
2023-09-30T10:04:54.658Z,7.85
2023-09-30T10:06:22.542Z,10.85
2023-09-30T10:07:53.076Z,8.57
2023-09-30T10:09:19.503Z,8.90
2023-09-30T10:10:43.820Z,8.32
2023-09-30T10:12:10.312Z,9.75
2023-09-30T10:13:52.172Z,10.68
2023-09-30T10:16:57.790Z,7.57
2023-09-30T10:18:24.153Z,7.38
2023-09-30T10:20:21.466Z,8.75
2023-09-30T10:22:18.367Z,6.30
2023-09-30T10:23:42.802Z,5.57
2023-09-30T10:25:36.996Z,8.07
2023-09-30T10:27:38.609Z,9.60
2023-09-30T10:29:10.831Z,10.30
2023-09-30T10:30:36.767Z,7.60
2023-09-30T10:32:00.159Z,9.68
2023-09-30T10:33:24.426Z,7.82
2023-09-30T10:34:54.686Z,9.85
2023-09-30T10:36:33.005Z,6.32
2023-09-30T10:38:38.092Z,6.55
2023-09-30T10:40:05.097Z,9.57
2023-09-30T10:41:54.399Z,8.40
2023-09-30T10:43:00.422Z,6.72
2023-09-30T10:44:40.756Z,8.57
2023-09-30T10:46:08.356Z,6.72
2023-09-30T10:47:37.546Z,6.75
2023-09-30T10:49:18.650Z,8.02
2023-09-30T10:50:55.621Z,8.45
2023-09-30T10:52:24.166Z,8.95
2023-09-30T10:53:49.588Z,7.97
2023-09-30T10:55:20.488Z,7.40
2023-09-30T10:56:43.279Z,8.10
2023-09-30T10:58:06.058Z,7.93
2023-09-30T10:59:33.311Z,7.00
2023-09-30T11:00:57.118Z,7.55
2023-09-30T11:02:31.909Z,7.57
2023-09-30T11:04:10.453Z,5.40
2023-09-30T11:05:59.241Z,8.77
2023-09-30T11:07:28.342Z,10.10
2023-09-30T11:08:57.111Z,5.82
2023-09-30T11:10:28.717Z,5.82
2023-09-30T11:13:18.926Z,5.72
2023-09-30T11:14:46.746Z,6.47
2023-09-30T11:50:01.768Z,6.32
2023-09-30T11:51:25.596Z,9.93
2023-09-30T11:55:32.761Z,7.22
2023-09-30T11:56:56.378Z,9.50
2023-09-30T11:58:21.594Z,7.57
2023-09-30T11:59:46.690Z,7.43
2023-09-30T12:01:13.639Z,7.40
2023-09-30T12:03:05.061Z,5.55
2023-09-30T12:04:35.682Z,9.55
2023-09-30T12:06:02.243Z,6.32
2023-09-30T12:07:31.651Z,8.57
2023-09-30T12:09:56.240Z,8.18
2023-09-30T12:11:20.914Z,6.75
2023-09-30T12:12:45.873Z,5.68
2023-09-30T12:14:11.150Z,9.57
2023-09-30T12:15:35.688Z,8.32
2023-09-30T12:16:58.364Z,5.90
2023-09-30T12:18:25.693Z,7.00
2023-09-30T12:19:51.814Z,5.25
2023-09-30T12:21:23.217Z,5.65
2023-09-30T12:22:47.559Z,7.88
2023-09-30T12:24:10.747Z,8.18
2023-09-30T12:25:40.126Z,6.07
2023-09-30T12:27:21.980Z,7.28
2023-09-30T12:28:45.288Z,8.63
2023-09-30T12:30:15.154Z,9.98
2023-09-30T12:31:52.369Z,7.35
2023-09-30T12:33:16.043Z,6.35
2023-09-30T12:34:40.710Z,8.98
2023-09-30T12:36:43.175Z,6.45
2023-09-30T12:38:05.949Z,10.00
2023-09-30T12:39:37.118Z,9.27
2023-09-30T12:41:07.994Z,9.80
2023-09-30T12:42:40.991Z,8.00
2023-09-30T12:44:05.150Z,7.60
2023-09-30T12:45:36.067Z,7.00
2023-09-30T12:47:00.414Z,7.43
2023-09-30T12:48:26.003Z,7.03
2023-09-30T12:49:55.206Z,8.13
2023-09-30T12:51:48.733Z,8.65
2023-09-30T12:53:16.507Z,7.53
2023-09-30T12:54:53.907Z,6.93
2023-09-30T12:56:17.960Z,8.80
2023-09-30T12:58:07.201Z,7.20
2023-09-30T12:59:30.811Z,7.18
2023-09-30T13:01:01.997Z,7.55
2023-09-30T13:02:46.777Z,8.75
2023-09-30T13:04:10.264Z,9.10
2023-09-30T13:05:32.875Z,10.05
2023-09-30T13:06:58.389Z,8.95
2023-09-30T13:08:28.737Z,9.32
2023-09-30T13:09:57.892Z,9.55
2023-09-30T13:18:08.107Z,8.60
2023-09-30T13:19:30.699Z,7.78
2023-09-30T13:20:56.728Z,7.10
2023-09-30T13:22:21.134Z,7.70
2023-09-30T13:23:44.081Z,9.38
2023-09-30T13:25:07.403Z,5.75
2023-09-30T13:26:31.651Z,7.05
2023-09-30T13:28:00.236Z,11.90
2023-09-30T13:29:23.270Z,9.00
2023-09-30T13:30:48.822Z,9.40
2023-09-30T13:32:13.317Z,9.45
2023-09-30T13:33:37.703Z,6.70
2023-09-30T13:35:03.326Z,9.40
2023-09-30T13:36:27.376Z,9.40
2023-09-30T13:37:50.220Z,4.95
2023-09-30T13:39:14.861Z,7.55
2023-09-30T13:40:39.236Z,8.93
2023-09-30T13:42:03.763Z,8.02
2023-09-30T13:43:28.185Z,6.13
2023-09-30T13:44:51.803Z,7.32
2023-09-30T13:46:18.817Z,8.88
2023-09-30T13:47:47.689Z,6.90
2023-09-30T13:49:14.510Z,6.72
2023-09-30T13:50:42.907Z,9.88
2023-09-30T13:52:09.253Z,6.32
2023-09-30T13:53:35.248Z,8.85
2023-09-30T13:55:02.065Z,8.20
2023-09-30T13:56:32.160Z,8.43
2023-09-30T13:57:57.872Z,10.43
2023-09-30T13:59:23.998Z,7.93
2023-09-30T14:00:53.469Z,12.85
2023-09-30T14:02:24.080Z,9.32
2023-09-30T14:04:56.662Z,6.57
2023-09-30T14:06:22.463Z,6.57
2023-09-30T14:07:45.288Z,6.65
2023-09-30T14:09:21.691Z,8.55
2023-09-30T14:10:52.582Z,8.90
2023-09-30T14:12:15.424Z,8.07
2023-09-30T14:13:43.873Z,12.75
2023-09-30T14:15:07.771Z,6.53
2023-09-30T14:16:33.922Z,8.45
2023-09-30T14:18:03.697Z,7.70
2023-09-30T14:19:32.390Z,6.07
2023-09-30T14:20:58.475Z,12.45
2023-09-30T14:22:24.727Z,8.68
2023-09-30T14:23:51.178Z,7.32
2023-09-30T14:25:14.023Z,9.02
2023-09-30T14:26:40.676Z,8.80
2023-09-30T14:28:24.647Z,8.20
2023-09-30T14:30:00.049Z,8.38
2023-09-30T14:36:34.742Z,5.97
2023-09-30T14:41:17.699Z,7.95
2023-09-30T14:42:43.867Z,9.25
2023-09-30T14:44:15.076Z,9.00
2023-09-30T14:45:54.226Z,6.38
2023-09-30T14:47:18.236Z,6.78
2023-09-30T14:48:47.156Z,9.93
2023-09-30T14:50:20.454Z,8.73
2023-09-30T14:51:59.579Z,12.45
2023-09-30T14:53:24.224Z,7.82
2023-09-30T14:54:49.158Z,8.88
2023-09-30T14:56:25.597Z,9.68
2023-09-30T14:57:49.300Z,8.23
2023-09-30T14:59:13.041Z,9.88
2023-09-30T15:00:35.886Z,6.13
2023-09-30T15:03:40.725Z,8.70
2023-09-30T15:05:07.351Z,9.55
2023-09-30T15:06:38.363Z,10.75
2023-09-30T15:08:12.273Z,11.90
2023-09-30T15:09:37.674Z,6.88
2023-09-30T15:11:00.823Z,8.57
2023-09-30T15:12:31.160Z,8.52
2023-09-30T15:14:01.303Z,11.27
2023-09-30T15:15:27.797Z,7.95
2023-09-30T15:16:59.320Z,9.95
2023-09-30T15:19:52.334Z,9.50
2023-09-30T15:21:15.684Z,9.15
2023-09-30T15:24:33.016Z,12.02
2023-09-30T15:26:04.954Z,8.98
2023-09-30T15:27:28.027Z,8.70
2023-09-30T15:28:52.788Z,12.45
2023-09-30T15:30:18.661Z,7.32
2023-09-30T15:31:43.646Z,6.82
2023-09-30T15:33:09.183Z,8.63
2023-09-30T15:34:33.938Z,9.10
2023-09-30T15:36:08.106Z,10.38
2023-09-30T15:37:37.234Z,12.05
2023-09-30T15:39:07.606Z,7.90
2023-09-30T15:40:36.142Z,11.15
2023-09-30T15:42:06.045Z,11.57
2023-09-30T15:43:31.207Z,10.70
2023-09-30T15:44:57.658Z,11.32
2023-09-30T15:46:23.676Z,10.82
2023-09-30T15:48:16.576Z,8.80
2023-09-30T15:49:44.511Z,8.25
2023-09-30T15:52:09.778Z,8.93
2023-09-30T15:53:44.296Z,10.02
2023-09-30T15:55:07.889Z,10.43
2023-09-30T15:56:38.851Z,8.15
2023-09-30T15:58:11.962Z,7.85
2023-09-30T15:59:38.120Z,10.73
2023-09-30T16:01:01.637Z,9.43
2023-09-30T16:02:24.905Z,6.93
2023-09-30T16:03:52.925Z,12.98
2023-09-30T16:05:16.249Z,10.30
2023-09-30T16:06:46.379Z,8.70
2023-09-30T16:09:12.000Z,9.32
2023-09-30T16:10:35.670Z,9.70
2023-09-30T16:12:04.099Z,8.10
2023-09-30T16:13:26.805Z,10.68
2023-09-30T16:14:49.526Z,9.45
2023-09-30T16:16:20.047Z,12.73
2023-09-30T16:18:12.108Z,13.68
2023-09-30T16:19:55.768Z,13.95
2023-09-30T16:21:19.452Z,13.15
2023-09-30T16:22:43.383Z,13.40
2023-09-30T16:30:01.883Z,14.30
2023-09-30T16:37:23.719Z,12.52
2023-09-30T16:45:22.760Z,9.63
2023-09-30T18:09:16.857Z,10.43
2023-09-30T18:18:54.508Z,13.50
2023-09-30T18:59:34.337Z,13.02
2023-09-30T19:36:51.791Z,16.15
2023-09-30T19:38:15.237Z,12.00
2023-09-30T19:40:01.354Z,9.60
2023-09-30T19:42:06.457Z,10.43
2023-09-30T19:43:36.333Z,15.00
2023-09-30T20:01:14.584Z,10.73
2023-09-30T20:05:27.143Z,13.57
2023-09-30T20:18:02.197Z,10.43
2023-09-30T21:10:29.213Z,19.23
2023-09-30T22:22:55.423Z,12.90
2023-09-30T22:41:48.922Z,15.43
2023-09-30T22:53:59.788Z,15.95
2023-09-30T23:14:08.370Z,13.35
2023-09-30T23:16:24.100Z,13.50
2023-09-30T23:18:24.901Z,8.93
2023-09-30T23:20:30.819Z,11.68
2023-09-30T23:24:29.427Z,12.20
2023-09-30T23:26:21.864Z,12.65
